createdAt,value
2023-05-22T00:00:05.868Z,133.67
2023-05-22T00:01:05.918Z,135.23
2023-05-22T00:02:05.993Z,135.70
2023-05-22T00:03:06.031Z,135.31
2023-05-22T00:04:06.073Z,135.62
2023-05-22T00:05:06.152Z,135.62
2023-05-22T00:06:06.196Z,134.97
2023-05-22T00:07:06.208Z,135.88
2023-05-22T00:08:06.245Z,135.40
2023-05-22T00:09:06.359Z,136.53
2023-05-22T00:10:06.360Z,137.69
2023-05-22T00:11:06.436Z,135.99
2023-05-22T00:12:06.421Z,135.84
2023-05-22T00:13:06.479Z,132.37
2023-05-22T00:14:06.507Z,134.44
2023-05-22T00:15:06.573Z,135.20
2023-05-22T00:16:06.622Z,136.97
2023-05-22T00:17:06.813Z,135.76
2023-05-22T00:18:06.780Z,135.29
2023-05-22T00:19:06.776Z,134.32
2023-05-22T00:20:06.805Z,136.39
2023-05-22T00:21:06.844Z,134.19
2023-05-22T00:22:06.892Z,135.26
2023-05-22T00:23:06.941Z,131.86
2023-05-22T00:24:06.998Z,135.04
2023-05-22T00:25:07.066Z,136.15
2023-05-22T00:26:07.086Z,135.92
2023-05-22T00:27:07.145Z,134.81
2023-05-22T00:28:07.193Z,135.06
2023-05-22T00:29:07.241Z,134.20
2023-05-22T00:30:07.290Z,134.37
2023-05-22T00:31:07.337Z,136.03
2023-05-22T00:32:07.391Z,134.96
2023-05-22T00:33:07.456Z,134.50
2023-05-22T00:34:07.555Z,136.90
2023-05-22T00:35:07.536Z,134.61
2023-05-22T00:36:07.588Z,135.57
2023-05-22T00:37:07.647Z,135.20
2023-05-22T00:38:07.696Z,137.45
2023-05-22T00:39:07.732Z,136.07
2023-05-22T00:40:07.796Z,138.06
2023-05-22T00:41:07.834Z,135.09
2023-05-22T00:42:07.885Z,135.87
2023-05-22T00:43:07.935Z,137.68
2023-05-22T00:44:08.062Z,138.97
2023-05-22T00:45:08.068Z,134.71
2023-05-22T00:46:08.151Z,135.28
2023-05-22T00:47:08.190Z,137.84
2023-05-22T00:48:08.265Z,136.67
2023-05-22T00:49:08.297Z,136.09
2023-05-22T00:50:08.321Z,134.60
2023-05-22T00:51:08.365Z,136.91
2023-05-22T00:52:08.434Z,136.51
2023-05-22T00:53:08.477Z,137.10
2023-05-22T00:54:08.541Z,137.37
2023-05-22T00:55:08.617Z,136.03
2023-05-22T00:56:08.635Z,137.14
2023-05-22T00:57:08.738Z,136.95
2023-05-22T00:58:08.728Z,135.40
2023-05-22T00:59:08.784Z,137.75
2023-05-22T01:00:08.847Z,138.89
2023-05-22T01:01:08.889Z,137.48
2023-05-22T01:02:09.046Z,139.71
2023-05-22T01:03:09.145Z,136.86
2023-05-22T01:04:09.204Z,137.49
2023-05-22T01:05:09.096Z,137.92
2023-05-22T01:06:09.155Z,137.09
2023-05-22T01:07:09.201Z,138.52
2023-05-22T01:08:09.315Z,139.00
2023-05-22T01:09:09.297Z,136.36
2023-05-22T01:10:09.338Z,139.47
2023-05-22T01:11:09.406Z,135.98
2023-05-22T01:12:09.460Z,136.59
2023-05-22T01:13:09.503Z,136.20
2023-05-22T01:14:09.536Z,136.91
2023-05-22T01:15:09.579Z,137.64
2023-05-22T01:16:09.750Z,134.52
2023-05-22T01:17:09.699Z,138.50
2023-05-22T01:18:09.812Z,135.82
2023-05-22T01:19:09.847Z,138.98
2023-05-22T01:20:09.827Z,136.54
2023-05-22T01:21:09.889Z,137.00
2023-05-22T01:22:09.935Z,139.43
2023-05-22T01:23:09.982Z,136.12
2023-05-22T01:24:10.020Z,136.70
2023-05-22T01:25:10.086Z,134.58
2023-05-22T01:26:10.146Z,136.73
2023-05-22T01:27:10.212Z,136.60
2023-05-22T01:28:10.259Z,137.23
2023-05-22T01:29:10.283Z,136.36
2023-05-22T01:30:10.343Z,136.64
2023-05-22T01:31:10.391Z,136.30
2023-05-22T01:32:10.476Z,135.19
2023-05-22T01:33:10.566Z,133.35
2023-05-22T01:34:10.560Z,136.31
2023-05-22T01:35:10.623Z,137.15
2023-05-22T01:36:10.655Z,136.78
2023-05-22T01:37:10.719Z,135.85
2023-05-22T01:38:10.769Z,136.49
2023-05-22T01:39:10.821Z,136.24
2023-05-22T01:40:10.867Z,134.12
2023-05-22T01:41:10.909Z,136.04
2023-05-22T01:42:10.968Z,135.05
2023-05-22T01:43:11.003Z,135.71
2023-05-22T01:44:11.056Z,137.26
2023-05-22T01:45:11.113Z,134.08
2023-05-22T01:46:11.180Z,137.61
2023-05-22T01:47:11.213Z,136.20
2023-05-22T01:48:11.271Z,133.13
2023-05-22T01:49:11.308Z,135.78
2023-05-22T01:50:11.371Z,134.35
2023-05-22T01:51:11.430Z,135.68
2023-05-22T01:52:11.527Z,135.94
2023-05-22T01:53:11.539Z,134.69
2023-05-22T01:54:11.565Z,133.79
2023-05-22T01:55:11.628Z,137.08
2023-05-22T01:56:11.697Z,137.79
2023-05-22T01:57:11.741Z,134.36
2023-05-22T01:58:11.778Z,135.32
2023-05-22T01:59:11.824Z,137.93
2023-05-22T02:00:11.885Z,135.83
2023-05-22T02:01:11.963Z,136.88
2023-05-22T02:02:12.034Z,134.57
2023-05-22T02:03:12.238Z,134.60
2023-05-22T02:04:12.072Z,137.56
2023-05-22T02:05:12.129Z,137.10
2023-05-22T02:06:12.188Z,135.51
2023-05-22T02:07:12.596Z,135.11
2023-05-22T02:08:12.294Z,136.69
2023-05-22T02:09:12.334Z,135.29
2023-05-22T02:10:12.418Z,136.09
2023-05-22T02:11:12.462Z,131.51
2023-05-22T02:12:12.543Z,134.67
2023-05-22T02:13:12.579Z,133.90
2023-05-22T02:14:12.644Z,131.51
2023-05-22T02:15:12.676Z,132.59
2023-05-22T02:16:12.775Z,135.16
2023-05-22T02:17:12.775Z,136.42
2023-05-22T02:18:12.990Z,133.69
2023-05-22T02:19:12.979Z,135.08
2023-05-22T02:20:12.958Z,133.85
2023-05-22T02:21:12.993Z,137.56
2023-05-22T02:22:13.084Z,136.27
2023-05-22T02:23:13.111Z,137.50
2023-05-22T02:24:13.156Z,134.45
2023-05-22T02:25:13.240Z,133.32
2023-05-22T02:26:13.270Z,133.93
2023-05-22T02:27:13.350Z,131.75
2023-05-22T02:28:13.397Z,133.13
2023-05-22T02:29:13.457Z,134.82
2023-05-22T02:30:13.519Z,135.24
2023-05-22T02:31:13.584Z,135.30
2023-05-22T02:32:13.633Z,134.58
2023-05-22T02:33:13.713Z,132.89
2023-05-22T02:34:13.761Z,132.47
2023-05-22T02:35:13.823Z,131.79
2023-05-22T02:36:13.878Z,134.49
2023-05-22T02:37:13.971Z,136.89
2023-05-22T02:38:14.016Z,131.93
2023-05-22T02:39:14.089Z,133.64
2023-05-22T02:40:14.152Z,133.41
2023-05-22T02:41:14.208Z,132.75
2023-05-22T02:42:14.316Z,134.02
2023-05-22T02:43:14.301Z,131.50
2023-05-22T02:44:14.356Z,134.15
2023-05-22T02:45:14.429Z,134.15
2023-05-22T02:46:14.560Z,132.89
2023-05-22T02:47:14.558Z,136.81
2023-05-22T02:48:14.627Z,133.15
2023-05-22T02:49:14.640Z,135.54
2023-05-22T02:50:14.681Z,133.53
2023-05-22T02:51:14.749Z,132.94
2023-05-22T02:52:14.850Z,131.28
2023-05-22T02:53:14.855Z,135.91
2023-05-22T02:54:14.916Z,131.76
2023-05-22T02:55:14.968Z,132.81
2023-05-22T02:56:15.041Z,130.80
2023-05-22T02:57:15.130Z,133.92
2023-05-22T02:58:15.134Z,134.39
2023-05-22T02:59:15.189Z,133.56
2023-05-22T03:00:15.255Z,132.17
2023-05-22T03:01:15.345Z,133.80
2023-05-22T03:02:15.419Z,133.30
2023-05-22T03:03:15.438Z,129.83
2023-05-22T03:04:15.477Z,131.31
2023-05-22T03:05:15.540Z,130.66
2023-05-22T03:06:15.592Z,132.78
2023-05-22T03:07:15.699Z,134.68
2023-05-22T03:08:15.711Z,131.99
2023-05-22T03:09:15.766Z,135.11
2023-05-22T03:10:15.824Z,132.06
2023-05-22T03:11:15.877Z,132.73
2023-05-22T03:12:15.957Z,129.92
2023-05-22T03:13:15.992Z,131.46
2023-05-22T03:14:16.036Z,129.03
2023-05-22T03:15:16.112Z,130.73
2023-05-22T03:16:16.165Z,130.87
2023-05-22T03:17:16.241Z,133.46
2023-05-22T03:18:16.279Z,129.17
2023-05-22T03:19:16.425Z,134.33
2023-05-22T03:20:16.414Z,127.85
2023-05-22T03:21:16.467Z,130.72
2023-05-22T03:22:16.572Z,133.79
2023-05-22T03:23:16.581Z,135.97
2023-05-22T03:24:16.645Z,128.99
2023-05-22T03:25:16.698Z,132.41
2023-05-22T03:26:16.761Z,133.14
2023-05-22T03:27:16.853Z,133.73
2023-05-22T03:28:16.917Z,133.73
2023-05-22T03:29:16.999Z,130.46
2023-05-22T03:30:17.035Z,133.24
2023-05-22T03:31:17.075Z,131.27
2023-05-22T03:32:17.173Z,132.27
2023-05-22T03:33:17.250Z,131.30
2023-05-22T03:34:17.274Z,133.10
2023-05-22T03:35:17.336Z,134.05
2023-05-22T03:36:17.393Z,131.77
2023-05-22T03:37:17.481Z,130.03
2023-05-22T03:38:17.658Z,128.93
2023-05-22T03:39:17.578Z,131.02
2023-05-22T03:40:17.631Z,130.24
2023-05-22T03:41:17.689Z,131.11
2023-05-22T03:42:17.751Z,131.22
2023-05-22T03:43:17.844Z,126.63
2023-05-22T03:44:17.903Z,132.25
2023-05-22T03:45:17.953Z,127.67
2023-05-22T03:46:18.066Z,129.24
2023-05-22T03:47:18.102Z,131.62
2023-05-22T03:48:18.129Z,134.55
2023-05-22T03:49:18.223Z,134.36
2023-05-22T03:50:18.274Z,131.49
2023-05-22T03:51:20.083Z,133.07
2023-05-22T03:52:18.371Z,130.76
2023-05-22T03:53:18.455Z,129.18
2023-05-22T03:54:18.511Z,133.41
2023-05-22T03:55:18.651Z,133.28
2023-05-22T03:56:18.629Z,130.78
2023-05-22T03:57:18.741Z,130.17
2023-05-22T03:58:18.765Z,130.72
2023-05-22T03:59:18.807Z,129.46
2023-05-22T04:00:18.877Z,130.80
2023-05-22T04:01:18.941Z,130.72
2023-05-22T04:02:19.069Z,130.33
2023-05-22T04:03:19.251Z,127.25
2023-05-22T04:04:19.125Z,128.73
2023-05-22T04:05:19.210Z,131.17
2023-05-22T04:06:19.257Z,129.03
2023-05-22T04:07:19.324Z,133.23
2023-05-22T04:08:19.358Z,130.19
2023-05-22T04:09:19.421Z,130.05
2023-05-22T04:10:19.510Z,129.26
2023-05-22T04:11:19.538Z,130.62
2023-05-22T04:12:19.663Z,129.71
2023-05-22T04:13:19.672Z,126.91
2023-05-22T04:14:19.736Z,131.24
2023-05-22T04:15:19.804Z,128.37
2023-05-22T04:16:19.909Z,130.78
2023-05-22T04:17:19.968Z,129.24
2023-05-22T04:18:19.989Z,130.13
2023-05-22T04:19:20.085Z,128.33
2023-05-22T04:20:20.107Z,131.73
2023-05-22T04:21:20.158Z,128.76
2023-05-22T04:22:20.234Z,127.75
2023-05-22T04:23:20.308Z,128.29
2023-05-22T04:24:20.335Z,131.03
2023-05-22T04:25:20.404Z,129.70
2023-05-22T04:26:20.472Z,130.91
2023-05-22T04:27:20.595Z,131.93
2023-05-22T04:28:20.566Z,131.86
2023-05-22T04:29:20.633Z,130.67
2023-05-22T04:30:20.715Z,129.36
2023-05-22T04:31:20.797Z,129.15
2023-05-22T04:32:20.822Z,131.14
2023-05-22T04:33:20.870Z,129.01
2023-05-22T04:34:20.938Z,127.71
2023-05-22T04:35:21.006Z,129.25
2023-05-22T04:36:21.062Z,126.80
2023-05-22T04:37:21.126Z,130.50
2023-05-22T04:38:21.182Z,130.11
2023-05-22T04:39:21.266Z,127.33
2023-05-22T04:40:21.318Z,129.39
2023-05-22T04:42:21.424Z,130.22
2023-05-22T04:43:21.465Z,129.21
2023-05-22T04:44:21.538Z,127.17
2023-05-22T04:45:21.587Z,128.39
2023-05-22T04:46:21.821Z,126.11
2023-05-22T04:47:21.709Z,129.43
2023-05-22T04:48:21.748Z,126.86
2023-05-22T04:49:21.812Z,127.67
2023-05-22T04:50:21.878Z,132.23
2023-05-22T04:51:21.924Z,127.37
2023-05-22T04:52:22.000Z,127.51
2023-05-22T04:53:22.041Z,126.06
2023-05-22T04:54:22.106Z,127.28
2023-05-22T04:55:22.188Z,127.47
2023-05-22T04:56:34.817Z,128.46
2023-05-22T04:57:23.221Z,128.70
2023-05-22T04:58:22.200Z,129.10
2023-05-22T04:59:22.307Z,127.47
2023-05-22T05:00:22.211Z,129.41
2023-05-22T05:01:22.222Z,129.16
2023-05-22T05:02:22.190Z,129.42
2023-05-22T05:03:22.233Z,127.96
2023-05-22T05:04:22.177Z,125.11
2023-05-22T05:05:22.163Z,126.21
2023-05-22T05:06:22.147Z,129.63
2023-05-22T05:07:22.708Z,124.90
2023-05-22T05:08:22.265Z,127.17
2023-05-22T05:09:22.304Z,126.77
2023-05-22T05:10:22.369Z,129.84
2023-05-22T05:11:22.444Z,122.21
2023-05-22T05:12:22.468Z,127.37
2023-05-22T05:13:22.536Z,122.55
2023-05-22T05:14:22.563Z,128.34
2023-05-22T05:15:22.618Z,126.90
2023-05-22T05:16:22.685Z,127.09
2023-05-22T05:17:23.277Z,126.64
2023-05-22T05:18:22.761Z,128.28
2023-05-22T05:19:22.829Z,127.42
2023-05-22T05:20:22.862Z,125.44
2023-05-22T05:21:22.931Z,122.11
2023-05-22T05:22:23.229Z,124.73
2023-05-22T05:23:23.004Z,127.19
2023-05-22T05:24:23.091Z,124.16
2023-05-22T05:25:23.152Z,125.63
2023-05-22T05:26:23.214Z,129.32
2023-05-22T05:27:23.234Z,127.06
2023-05-22T05:28:23.329Z,124.67
2023-05-22T05:29:23.339Z,123.34
2023-05-22T05:30:23.414Z,123.29
2023-05-22T05:31:23.477Z,125.34
2023-05-22T05:32:23.600Z,121.77
2023-05-22T05:33:23.567Z,120.41
2023-05-22T05:34:23.627Z,122.26
2023-05-22T05:35:23.708Z,122.66
2023-05-22T05:36:23.703Z,128.04
2023-05-22T05:37:23.782Z,129.70
2023-05-22T05:38:23.839Z,133.24
2023-05-22T05:39:23.873Z,134.62
2023-05-22T05:40:23.927Z,136.53
2023-05-22T05:41:23.935Z,146.54
2023-05-22T05:42:23.982Z,148.02
2023-05-22T05:43:23.991Z,152.69
2023-05-22T05:44:24.064Z,160.97
2023-05-22T05:45:24.071Z,169.34
2023-05-22T05:46:24.140Z,169.58
2023-05-22T05:47:24.322Z,177.74
2023-05-22T05:48:24.066Z,187.89
2023-05-22T05:49:24.152Z,193.50
2023-05-22T05:50:24.115Z,195.41
2023-05-22T05:51:24.120Z,197.05
2023-05-22T05:52:24.109Z,197.69
2023-05-22T05:53:24.111Z,199.26
2023-05-22T05:54:24.108Z,198.08
2023-05-22T05:55:24.175Z,200.70
2023-05-22T05:56:24.176Z,202.84
2023-05-22T05:57:24.210Z,203.48
2023-05-22T05:58:24.183Z,202.79
2023-05-22T05:59:24.207Z,204.18
2023-05-22T06:00:24.185Z,205.14
2023-05-22T06:01:24.275Z,206.71
2023-05-22T06:02:24.365Z,207.33
2023-05-22T06:03:24.404Z,207.24
2023-05-22T06:04:24.377Z,206.88
2023-05-22T06:05:24.336Z,207.24
2023-05-22T06:06:24.341Z,207.07
2023-05-22T06:07:24.355Z,212.26
2023-05-22T06:08:24.390Z,207.13
2023-05-22T06:09:24.402Z,205.69
2023-05-22T06:10:24.412Z,205.99
2023-05-22T06:11:24.453Z,203.29
2023-05-22T06:12:24.469Z,202.40
2023-05-22T06:13:24.522Z,202.14
2023-05-22T06:14:24.504Z,205.73
2023-05-22T06:15:24.566Z,205.13
2023-05-22T06:16:24.667Z,203.05
2023-05-22T06:17:24.651Z,203.07
2023-05-22T06:18:24.619Z,206.43
2023-05-22T06:19:24.721Z,206.93
2023-05-22T06:20:24.702Z,202.97
2023-05-22T06:21:24.717Z,201.60
2023-05-22T06:22:28.574Z,205.35
2023-05-22T06:23:24.734Z,206.91
2023-05-22T06:24:24.706Z,206.31
2023-05-22T06:25:24.716Z,202.71
2023-05-22T06:26:24.688Z,200.55
2023-05-22T06:27:24.720Z,204.26
2023-05-22T06:28:24.701Z,200.74
2023-05-22T06:29:24.686Z,201.49
2023-05-22T06:30:38.951Z,200.30
2023-05-22T06:31:25.680Z,200.55
2023-05-22T06:32:24.786Z,200.80
2023-05-22T06:33:24.748Z,196.64
2023-05-22T06:34:24.729Z,200.93
2023-05-22T06:35:24.796Z,196.82
2023-05-22T06:36:24.630Z,196.90
2023-05-22T06:37:24.611Z,202.23
2023-05-22T06:38:24.605Z,199.92
2023-05-22T06:39:24.602Z,194.02
2023-05-22T06:40:24.612Z,185.79
2023-05-22T06:41:24.624Z,158.15
2023-05-22T06:42:24.662Z,134.47
2023-05-22T06:43:24.637Z,135.41
2023-05-22T06:44:24.631Z,124.23
2023-05-22T06:45:24.585Z,101.74
2023-05-22T06:46:26.060Z,87.57
2023-05-22T06:47:24.917Z,78.90
2023-05-22T06:48:24.542Z,75.10
2023-05-22T06:49:24.552Z,71.18
2023-05-22T06:50:24.535Z,88.18
2023-05-22T06:51:24.576Z,98.96
2023-05-22T06:52:24.492Z,99.68
2023-05-22T06:53:24.485Z,117.44
2023-05-22T06:54:24.534Z,125.07
2023-05-22T06:55:24.609Z,145.94
2023-05-22T06:56:24.707Z,158.08
2023-05-22T06:57:24.719Z,173.58
2023-05-22T06:58:24.764Z,187.67
2023-05-22T06:59:24.815Z,196.91
2023-05-22T07:00:24.873Z,205.28
2023-05-22T07:01:25.016Z,211.70
2023-05-22T07:02:24.964Z,218.98
2023-05-22T07:03:24.987Z,232.14
2023-05-22T07:04:25.001Z,238.12
2023-05-22T07:05:25.104Z,243.63
2023-05-22T07:06:25.060Z,248.41
2023-05-22T07:07:25.095Z,249.00
2023-05-22T07:08:25.102Z,250.00
2023-05-22T07:09:25.164Z,249.10
2023-05-22T07:10:25.128Z,248.16
2023-05-22T07:11:25.140Z,249.98
2023-05-22T07:12:25.279Z,248.35
2023-05-22T07:13:25.231Z,250.00
2023-05-22T07:14:25.215Z,249.87
2023-05-22T07:15:25.207Z,249.48
2023-05-22T07:16:25.279Z,249.72
2023-05-22T07:17:25.296Z,250.00
2023-05-22T07:18:25.256Z,249.89
2023-05-22T07:19:26.290Z,250.00
2023-05-22T07:20:25.262Z,247.64
2023-05-22T07:21:25.331Z,249.92
2023-05-22T07:22:25.769Z,250.00
2023-05-22T07:23:26.484Z,249.73
2023-05-22T07:24:25.327Z,248.89
2023-05-22T07:25:25.281Z,250.00
2023-05-22T07:26:25.270Z,250.00
2023-05-22T07:27:25.301Z,249.77
2023-05-22T07:28:25.278Z,248.00
2023-05-22T07:29:25.311Z,248.93
2023-05-22T07:30:25.363Z,248.73
2023-05-22T07:31:25.386Z,250.00
2023-05-22T07:32:25.445Z,182.69
2023-05-22T07:33:25.797Z,184.07
2023-05-22T07:34:25.579Z,177.46
2023-05-22T07:35:25.426Z,166.14
2023-05-22T07:36:25.389Z,152.27
2023-05-22T07:37:25.411Z,123.68
2023-05-22T07:38:25.791Z,129.43
2023-05-22T07:39:25.556Z,93.34
2023-05-22T07:40:36.183Z,96.93
2023-05-22T07:41:26.431Z,93.50
2023-05-22T07:42:25.784Z,76.32
2023-05-22T07:43:25.781Z,85.58
2023-05-22T07:44:25.406Z,60.92
2023-05-22T07:45:25.414Z,72.06
2023-05-22T07:46:25.483Z,103.95
2023-05-22T07:47:25.431Z,121.65
2023-05-22T07:48:25.410Z,130.26
2023-05-22T07:49:25.360Z,136.94
2023-05-22T07:50:25.432Z,144.47
2023-05-22T07:51:25.346Z,148.85
2023-05-22T07:52:25.337Z,155.13
2023-05-22T07:53:25.334Z,163.40
2023-05-22T07:54:25.374Z,168.58
2023-05-22T07:55:25.336Z,173.81
2023-05-22T07:56:25.309Z,177.42
2023-05-22T07:57:25.305Z,183.82
2023-05-22T07:58:25.286Z,188.11
2023-05-22T07:59:25.299Z,191.17
2023-05-22T08:00:25.346Z,196.57
2023-05-22T08:01:25.267Z,198.01
2023-05-22T08:02:25.367Z,203.30
2023-05-22T08:03:25.387Z,205.92
2023-05-22T08:04:25.359Z,208.15
2023-05-22T08:05:25.273Z,212.68
2023-05-22T08:06:25.279Z,214.06
2023-05-22T08:07:25.234Z,219.10
2023-05-22T08:08:25.332Z,220.82
2023-05-22T08:09:25.374Z,223.24
2023-05-22T08:10:26.554Z,225.14
2023-05-22T08:11:25.531Z,229.14
2023-05-22T08:12:25.413Z,231.50
2023-05-22T08:13:25.402Z,233.74
2023-05-22T08:14:25.414Z,234.73
2023-05-22T08:15:25.429Z,240.24
2023-05-22T08:16:25.432Z,241.51
2023-05-22T08:17:25.485Z,245.08
2023-05-22T08:18:25.422Z,250.00
2023-05-22T08:19:25.451Z,249.78
2023-05-22T08:20:25.477Z,249.43
2023-05-22T08:21:25.371Z,249.55
2023-05-22T08:22:25.361Z,250.00
2023-05-22T08:23:25.376Z,248.67
2023-05-22T08:24:25.360Z,248.80
2023-05-22T08:25:25.338Z,249.18
2023-05-22T08:26:25.515Z,249.38
2023-05-22T08:27:25.438Z,248.37
2023-05-22T08:28:25.839Z,247.71
2023-05-22T08:29:25.317Z,248.57
2023-05-22T08:30:25.308Z,248.15
2023-05-22T08:31:25.299Z,247.05
2023-05-22T08:32:25.419Z,248.64
2023-05-22T08:33:25.307Z,248.85
2023-05-22T08:34:25.339Z,248.52
2023-05-22T08:35:25.251Z,248.14
2023-05-22T08:36:25.256Z,248.69
2023-05-22T08:37:25.257Z,248.40
2023-05-22T08:38:25.324Z,248.17
2023-05-22T08:39:25.279Z,248.66
2023-05-22T08:40:25.267Z,246.03
2023-05-22T08:41:25.233Z,248.00
2023-05-22T08:42:25.318Z,249.44
2023-05-22T08:43:25.237Z,244.81
2023-05-22T08:44:25.263Z,244.49
2023-05-22T08:45:25.229Z,244.54
2023-05-22T08:46:25.207Z,247.03
2023-05-22T08:47:25.225Z,249.81
2023-05-22T08:48:25.299Z,249.22
2023-05-22T08:49:25.298Z,249.88
2023-05-22T08:50:25.175Z,249.70
2023-05-22T08:51:25.159Z,250.00
2023-05-22T08:52:25.144Z,249.96
2023-05-22T08:53:25.171Z,250.00
2023-05-22T08:54:25.308Z,249.61
2023-05-22T08:55:25.177Z,249.89
2023-05-22T08:56:26.768Z,249.62
2023-05-22T08:57:25.124Z,249.14
2023-05-22T08:58:25.108Z,250.00
2023-05-22T08:59:25.417Z,248.35
2023-05-22T09:00:25.094Z,249.33
2023-05-22T09:01:25.128Z,250.00
2023-05-22T09:02:25.111Z,250.35
2023-05-22T09:03:25.182Z,250.17
2023-05-22T09:04:25.086Z,249.22
2023-05-22T09:05:25.063Z,249.98
2023-05-22T09:06:25.074Z,249.37
2023-05-22T09:07:25.047Z,250.00
2023-05-22T09:08:25.056Z,250.00
2023-05-22T09:09:25.046Z,250.00
2023-05-22T09:10:25.053Z,250.03
2023-05-22T09:11:25.057Z,249.42
2023-05-22T09:12:25.012Z,250.00
2023-05-22T09:13:25.020Z,249.70
2023-05-22T09:14:25.042Z,250.00
2023-05-22T09:15:25.275Z,250.00
2023-05-22T09:16:25.138Z,250.00
2023-05-22T09:17:25.024Z,249.52
2023-05-22T09:18:25.014Z,249.55
2023-05-22T09:19:25.017Z,249.10
2023-05-22T09:20:24.995Z,250.00
2023-05-22T09:21:30.202Z,249.84
2023-05-22T09:22:25.967Z,250.04
2023-05-22T09:23:24.967Z,250.52
2023-05-22T09:24:24.952Z,251.72
2023-05-22T09:25:24.952Z,253.49
2023-05-22T09:26:25.005Z,257.58
2023-05-22T09:27:24.931Z,250.00
2023-05-22T09:28:24.950Z,249.95
2023-05-22T09:29:24.909Z,249.06
2023-05-22T09:30:24.903Z,250.00
2023-05-22T09:31:25.001Z,249.58
2023-05-22T09:32:24.937Z,249.28
2023-05-22T09:33:25.376Z,248.31
2023-05-22T09:34:24.896Z,248.09
2023-05-22T09:35:24.878Z,242.86
2023-05-22T09:36:24.866Z,239.82
2023-05-22T09:37:24.865Z,236.75
2023-05-22T09:38:25.328Z,233.17
2023-05-22T09:39:24.874Z,228.57
2023-05-22T09:40:24.875Z,225.48
2023-05-22T09:41:24.937Z,221.41
2023-05-22T09:42:24.965Z,217.90
2023-05-22T09:43:25.334Z,210.75
2023-05-22T09:44:25.020Z,202.41
2023-05-22T09:45:25.034Z,186.44
2023-05-22T09:46:25.105Z,173.70
2023-05-22T09:47:25.121Z,168.55
2023-05-22T09:48:25.358Z,168.81
2023-05-22T09:49:25.175Z,157.79
2023-05-22T09:50:25.176Z,136.97
2023-05-22T09:51:25.233Z,127.72
2023-05-22T09:52:25.274Z,116.80
2023-05-22T09:53:25.361Z,103.52
2023-05-22T09:54:25.323Z,93.67
2023-05-22T09:55:25.370Z,88.06
2023-05-22T09:56:37.826Z,91.60
2023-05-22T09:57:26.462Z,91.72
2023-05-22T09:58:25.413Z,92.32
2023-05-22T09:59:25.423Z,92.93
2023-05-22T10:00:25.387Z,77.49
2023-05-22T10:01:25.396Z,62.41
2023-05-22T10:02:25.412Z,48.78
2023-05-22T10:03:25.441Z,52.05
2023-05-22T10:04:25.473Z,56.53
2023-05-22T10:05:25.437Z,61.14
2023-05-22T10:06:25.536Z,63.12
2023-05-22T10:07:25.580Z,66.22
2023-05-22T10:08:25.606Z,66.29
2023-05-22T10:09:25.688Z,63.40
2023-05-22T10:10:25.742Z,67.40
2023-05-22T10:11:25.789Z,68.78
2023-05-22T10:12:25.857Z,58.95
2023-05-22T10:13:25.915Z,63.44
2023-05-22T10:14:26.010Z,71.88
2023-05-22T10:15:26.028Z,76.23
2023-05-22T10:16:26.260Z,77.14
2023-05-22T10:17:26.174Z,75.12
2023-05-22T10:18:26.261Z,77.16
2023-05-22T10:19:26.383Z,80.00
2023-05-22T10:20:26.334Z,71.67
2023-05-22T10:21:26.429Z,64.59
2023-05-22T10:22:26.445Z,60.70
2023-05-22T10:23:26.506Z,65.97
2023-05-22T10:24:26.847Z,42.97
2023-05-22T10:25:26.613Z,18.78
2023-05-22T10:26:26.671Z,2.14
2023-05-22T10:27:26.723Z,0.00
2023-05-22T10:28:26.788Z,13.70
2023-05-22T10:29:26.883Z,27.47
2023-05-22T10:30:26.972Z,34.34
2023-05-22T10:31:26.981Z,33.72
2023-05-22T10:32:27.110Z,40.36
2023-05-22T10:33:27.135Z,41.18
2023-05-22T10:34:27.358Z,43.49
2023-05-22T10:35:27.262Z,45.10
2023-05-22T10:36:27.199Z,49.68
2023-05-22T10:37:27.237Z,52.05
2023-05-22T10:38:27.245Z,53.61
2023-05-22T10:39:27.238Z,56.34
2023-05-22T10:40:27.258Z,56.95
2023-05-22T10:41:27.229Z,59.96
2023-05-22T10:42:27.224Z,61.96
2023-05-22T10:43:27.289Z,63.75
2023-05-22T10:44:27.225Z,66.03
2023-05-22T10:45:27.258Z,69.62
2023-05-22T10:46:27.323Z,70.50
2023-05-22T10:47:27.230Z,70.99
2023-05-22T10:48:27.230Z,73.78
2023-05-22T10:49:27.254Z,74.89
2023-05-22T10:50:27.247Z,77.79
2023-05-22T10:51:27.345Z,79.60
2023-05-22T10:52:27.274Z,80.25
2023-05-22T10:53:27.304Z,81.79
2023-05-22T10:54:27.347Z,83.24
2023-05-22T10:55:27.375Z,85.89
2023-05-22T10:56:27.344Z,86.01
2023-05-22T10:57:28.363Z,88.44
2023-05-22T10:58:27.415Z,90.79
2023-05-22T10:59:27.432Z,89.51
2023-05-22T11:00:27.422Z,91.42
2023-05-22T11:01:27.546Z,92.18
2023-05-22T11:02:27.537Z,94.31
2023-05-22T11:03:27.625Z,94.79
2023-05-22T11:04:27.553Z,94.24
2023-05-22T11:05:27.530Z,95.94
2023-05-22T11:06:27.593Z,97.25
2023-05-22T11:07:27.683Z,98.77
2023-05-22T11:08:27.876Z,101.30
2023-05-22T11:09:27.617Z,101.09
2023-05-22T11:10:27.682Z,102.08
2023-05-22T11:11:27.679Z,103.12
2023-05-22T11:12:27.707Z,104.04
2023-05-22T11:13:29.347Z,104.93
2023-05-22T11:14:27.797Z,104.49
2023-05-22T11:15:27.816Z,106.00
2023-05-22T11:16:27.857Z,106.03
2023-05-22T11:17:28.049Z,107.17
2023-05-22T11:18:28.013Z,107.57
2023-05-22T11:19:28.011Z,108.42
2023-05-22T11:20:27.936Z,107.99
2023-05-22T11:21:28.000Z,109.36
2023-05-22T11:22:28.002Z,110.64
2023-05-22T11:23:28.467Z,111.23
2023-05-22T11:24:28.091Z,112.40
2023-05-22T11:25:28.128Z,113.13
2023-05-22T11:26:28.275Z,113.85
2023-05-22T11:27:28.175Z,113.13
2023-05-22T11:28:28.226Z,114.02
2023-05-22T11:29:28.235Z,113.71
2023-05-22T11:30:28.278Z,114.33
2023-05-22T11:31:28.299Z,114.72
2023-05-22T11:32:28.354Z,113.21
2023-05-22T11:33:28.379Z,114.02
2023-05-22T11:34:28.391Z,114.28
2023-05-22T11:35:28.434Z,114.01
2023-05-22T11:36:28.455Z,114.61
2023-05-22T11:37:28.520Z,115.18
2023-05-22T11:38:28.536Z,113.30
2023-05-22T11:39:28.658Z,114.77
2023-05-22T11:40:28.596Z,115.59
2023-05-22T11:41:28.985Z,114.92
2023-05-22T11:42:28.673Z,114.60
2023-05-22T11:43:28.720Z,116.24
2023-05-22T11:44:28.829Z,114.62
2023-05-22T11:45:28.817Z,114.81
2023-05-22T11:46:28.878Z,115.23
2023-05-22T11:47:28.880Z,115.00
2023-05-22T11:48:28.914Z,114.79
2023-05-22T11:49:28.949Z,114.60
2023-05-22T11:50:41.719Z,113.80
2023-05-22T11:51:29.977Z,113.86
2023-05-22T11:52:28.943Z,114.05
2023-05-22T11:53:28.948Z,114.00
2023-05-22T11:54:28.942Z,114.27
2023-05-22T11:55:28.962Z,113.18
2023-05-22T11:56:28.906Z,113.75
2023-05-22T11:57:28.943Z,112.02
2023-05-22T11:58:28.922Z,113.57
2023-05-22T11:59:28.904Z,113.35
2023-05-22T12:00:28.932Z,112.30
2023-05-22T12:01:28.885Z,112.41
2023-05-22T12:02:28.956Z,112.55
2023-05-22T12:03:28.917Z,112.10
2023-05-22T12:04:28.857Z,111.63
2023-05-22T12:05:28.909Z,112.12
2023-05-22T12:06:28.957Z,112.21
2023-05-22T12:07:28.931Z,110.31
2023-05-22T12:08:28.980Z,111.50
2023-05-22T12:09:29.011Z,113.17
2023-05-22T12:10:29.034Z,112.18
2023-05-22T12:11:29.164Z,112.50
2023-05-22T12:12:29.134Z,111.51
2023-05-22T12:13:29.170Z,111.22
2023-05-22T12:14:29.189Z,112.39
2023-05-22T12:15:29.225Z,112.15
2023-05-22T12:16:29.279Z,111.31
2023-05-22T12:17:29.303Z,111.76
2023-05-22T12:18:29.358Z,110.51
2023-05-22T12:19:29.489Z,109.79
2023-05-22T12:20:29.448Z,110.81
2023-05-22T12:21:29.449Z,111.50
2023-05-22T12:22:29.532Z,111.54
2023-05-22T12:23:29.556Z,111.46
2023-05-22T12:24:29.582Z,112.72
2023-05-22T12:25:29.634Z,112.28
2023-05-22T12:26:29.653Z,111.35
2023-05-22T12:27:32.416Z,112.17
2023-05-22T12:28:29.690Z,113.45
2023-05-22T12:29:29.687Z,113.13
2023-05-22T12:30:29.668Z,112.98
2023-05-22T12:31:29.696Z,112.18
2023-05-22T12:32:29.764Z,111.97